Lewistown, MT

1:20 PM MDT on May 05, 2015 (GMT -0600)
Lewistown Municipal | | Change Station
CLOSE
Current Station
Airport
Location: Lewistown,
Elevation: 4167 ft
Nearby Weather Stations

Elev 4167 ft 47.05 °N, 109.47 °W | Updated 26 minutes ago

Overcast
Overcast
72 °F
Feels Like 72 °F
N
10
Wind Variable Wind from NW

Today
High -- | Low -- °F
--% Chance of Precip.
Yesterday
High -- | Low -- °F
Precip. -- in
5:56 AM 8:33 PM
Full, 97% visible
Pressure 29.68 in
Visibility 10.0 miles
Clouds Mostly Cloudy 10000 ft
Dew Point 46 °F
Humidity 40%
Rainfall 0.00 in
Snow Depth Not available.
UV 5 out of 12
Pollen 9.60 out of 12
Air Quality Not available.
Flu Activity Local Activity
METAR KLWT 051854Z AUTO 32009KT 280V350 10SM BKN100 22/08 A2976 RMK AO2 LTG DSNT E SLP051 T02220078

More Conditions Fewer Conditions

Pressure 29.68 in
Visibility 10.0 miles
Clouds Mostly Cloudy 10000 ft
Dew Point 46 °F
Humidity 40%
Rainfall 0.00 in
Snow Depth Not available.
UV 5 out of 12
Pollen 9.60 out of 12
Air Quality Not available.
Flu Activity Local Activity
METAR KLWT 051854Z AUTO 32009KT 280V350 10SM BKN100 22/08 A2976 RMK AO2 LTG DSNT E SLP051 T02220078

More Conditions Fewer Conditions

Nowcast | as of 1:08 PM MDT on May 5, 2015

At 106 PM MDT...Doppler radar indicated a thunderstorm...13 miles west of Grass Range...or 16 miles east of Lewistown moving north at 20 mph. Hail up to one half inch in diameter and wind gusts up to 35 mph can be expected with this storm...along with brief heavy rain and the occasional cloud to ground lightning. Locations impacted include... Roy...Fergus and Forestgrove. This includes the following highways... Highway 200 between mile markers 93 and 107. Highway 191 between mile markers 28 and 42...and between mile markers 58 and 68.

×

10-Day Weather Forecast

Almanac

Astronomy

May. 05, 2015 Rise Set
Actual Time
Civil Twilight
Nautical Twilight
Astronomical Twilight
Moon
Length of Visible Light
Length of Day
Tomorrow will be .
, % of the Moon is Illuminated

Today's Extremes

State Highs State Lows

Community

WunderPhotos

Upload Photos

1,818,957 photos uploaded!

WunderBlogs® & News

Nearby

Air Quality

  Air Quality AQ Index Pollutant
Not available.

Snow Depth

Station Depth Elevation

Earthquake Activity

City Distance Mag. Time & Date
Minimum magnitude displayed is 2.5.

Coastal Water Temperatures

Place Temperature

Stations

Nearby Weather Stations

Station Location Temp. Windchill Dew Point Humidity Wind Precip. Elev Updated Type